sensor_id;sensor_type;location;lat;lon;timestamp;temperature;humidity
63260;DHT22;49390;51.380;0.098;2022-12-29T00:02:17;9.80;99.90
63260;DHT22;49390;51.380;0.098;2022-12-29T00:04:46;9.80;99.90
63260;DHT22;49390;51.380;0.098;2022-12-29T00:07:18;9.80;99.90
63260;DHT22;49390;51.380;0.098;2022-12-29T00:09:46;9.80;99.90
63260;DHT22;49390;51.380;0.098;2022-12-29T00:12:14;9.80;99.90
63260;DHT22;49390;51.380;0.098;2022-12-29T00:14:42;9.80;99.90
63260;DHT22;49390;51.380;0.098;2022-12-29T00:17:29;9.90;99.90
63260;DHT22;49390;51.380;0.098;2022-12-29T00:19:58;9.90;99.90
63260;DHT22;49390;51.380;0.098;2022-12-29T00:22:44;9.90;99.90
63260;DHT22;49390;51.380;0.098;2022-12-29T00:25:31;9.90;99.90
63260;DHT22;49390;51.380;0.098;2022-12-29T00:28:20;9.80;99.90
63260;DHT22;49390;51.380;0.098;2022-12-29T00:31:11;9.90;99.90
63260;DHT22;49390;51.380;0.098;2022-12-29T00:33:58;9.80;99.90
63260;DHT22;49390;51.380;0.098;2022-12-29T00:36:45;9.80;99.90
63260;DHT22;49390;51.380;0.098;2022-12-29T00:39:20;9.80;99.90
63260;DHT22;49390;51.380;0.098;2022-12-29T00:42:17;9.80;99.90
63260;DHT22;49390;51.380;0.098;2022-12-29T00:45:04;9.80;99.90
63260;DHT22;49390;51.380;0.098;2022-12-29T00:47:33;9.80;99.90
63260;DHT22;49390;51.380;0.098;2022-12-29T00:50:02;9.70;99.90
63260;DHT22;49390;51.380;0.098;2022-12-29T00:52:30;9.70;99.90
63260;DHT22;49390;51.380;0.098;2022-12-29T00:54:58;9.70;99.90
63260;DHT22;49390;51.380;0.098;2022-12-29T00:57:26;9.70;99.90
63260;DHT22;49390;51.380;0.098;2022-12-29T00:59:54;9.70;99.90
63260;DHT22;49390;51.380;0.098;2022-12-29T01:02:23;9.60;99.90
63260;DHT22;49390;51.380;0.098;2022-12-29T01:04:51;9.60;99.90
63260;DHT22;49390;51.380;0.098;2022-12-29T01:07:22;9.60;99.90
63260;DHT22;49390;51.380;0.098;2022-12-29T01:09:50;9.60;99.90
63260;DHT22;49390;51.380;0.098;2022-12-29T01:12:37;9.60;99.90
63260;DHT22;49390;51.380;0.098;2022-12-29T01:15:13;9.60;99.90
63260;DHT22;49390;51.380;0.098;2022-12-29T01:17:42;9.60;99.90
63260;DHT22;49390;51.380;0.098;2022-12-29T01:20:11;9.70;99.90
63260;DHT22;49390;51.380;0.098;2022-12-29T01:22:40;9.60;99.90
63260;DHT22;49390;51.380;0.098;2022-12-29T01:25:10;9.60;99.90
63260;DHT22;49390;51.380;0.098;2022-12-29T01:27:39;9.60;99.90
63260;DHT22;49390;51.380;0.098;2022-12-29T01:30:08;9.60;99.90
63260;DHT22;49390;51.380;0.098;2022-12-29T01:32:36;9.60;99.90
63260;DHT22;49390;51.380;0.098;2022-12-29T01:35:04;9.50;99.90
63260;DHT22;49390;51.380;0.098;2022-12-29T01:37:35;9.50;99.90
63260;DHT22;49390;51.380;0.098;2022-12-29T01:40:04;9.60;99.90
63260;DHT22;49390;51.380;0.098;2022-12-29T01:42:34;9.60;99.90
63260;DHT22;49390;51.380;0.098;2022-12-29T01:45:08;9.60;99.90
63260;DHT22;49390;51.380;0.098;2022-12-29T01:47:45;9.50;99.90
63260;DHT22;49390;51.380;0.098;2022-12-29T01:53:11;9.50;99.90
63260;DHT22;49390;51.380;0.098;2022-12-29T01:55:44;9.50;99.90
63260;DHT22;49390;51.380;0.098;2022-12-29T01:58:15;9.40;99.90
63260;DHT22;49390;51.380;0.098;2022-12-29T02:00:45;9.40;99.90
63260;DHT22;49390;51.380;0.098;2022-12-29T02:03:16;9.40;99.90
63260;DHT22;49390;51.380;0.098;2022-12-29T02:05:48;9.40;99.90
63260;DHT22;49390;51.380;0.098;2022-12-29T02:08:20;9.30;99.90
63260;DHT22;49390;51.380;0.098;2022-12-29T02:10:49;9.30;99.90
63260;DHT22;49390;51.380;0.098;2022-12-29T02:13:19;9.30;99.90
63260;DHT22;49390;51.380;0.098;2022-12-29T02:16:00;9.30;99.90
63260;DHT22;49390;51.380;0.098;2022-12-29T02:30:08;9.20;99.90
63260;DHT22;49390;51.380;0.098;2022-12-29T02:32:44;9.20;99.90
63260;DHT22;49390;51.380;0.098;2022-12-29T02:35:25;9.20;99.90
63260;DHT22;49390;51.380;0.098;2022-12-29T02:51:46;9.30;99.90
63260;DHT22;49390;51.380;0.098;2022-12-29T02:54:19;9.40;99.90
63260;DHT22;49390;51.380;0.098;2022-12-29T03:00:09;9.40;99.90
63260;DHT22;49390;51.380;0.098;2022-12-29T03:03:40;9.40;99.90
63260;DHT22;49390;51.380;0.098;2022-12-29T03:06:25;9.50;99.90
63260;DHT22;49390;51.380;0.098;2022-12-29T03:09:05;9.40;99.90
63260;DHT22;49390;51.380;0.098;2022-12-29T03:11:58;9.40;99.90
63260;DHT22;49390;51.380;0.098;2022-12-29T03:17:58;9.50;99.90
63260;DHT22;49390;51.380;0.098;2022-12-29T03:23:20;9.50;99.90
63260;DHT22;49390;51.380;0.098;2022-12-29T03:25:52;9.50;99.90
63260;DHT22;49390;51.380;0.098;2022-12-29T03:28:27;9.50;99.90
63260;DHT22;49390;51.380;0.098;2022-12-29T03:30:58;9.50;99.90
63260;DHT22;49390;51.380;0.098;2022-12-29T03:33:29;9.60;99.90
63260;DHT22;49390;51.380;0.098;2022-12-29T03:36:04;9.70;99.90
63260;DHT22;49390;51.380;0.098;2022-12-29T03:41:15;9.70;99.90
63260;DHT22;49390;51.380;0.098;2022-12-29T03:43:47;9.70;99.90
63260;DHT22;49390;51.380;0.098;2022-12-29T03:46:16;9.80;99.90
63260;DHT22;49390;51.380;0.098;2022-12-29T03:48:44;9.80;99.90
63260;DHT22;49390;51.380;0.098;2022-12-29T03:51:13;9.90;99.90
63260;DHT22;49390;51.380;0.098;2022-12-29T03:53:41;9.90;99.90
63260;DHT22;49390;51.380;0.098;2022-12-29T03:56:09;9.90;99.90
63260;DHT22;49390;51.380;0.098;2022-12-29T03:58:38;9.90;99.90
63260;DHT22;49390;51.380;0.098;2022-12-29T04:01:14;9.90;99.90
63260;DHT22;49390;51.380;0.098;2022-12-29T04:03:47;10.00;99.90
63260;DHT22;49390;51.380;0.098;2022-12-29T04:06:16;10.00;99.90
63260;DHT22;49390;51.380;0.098;2022-12-29T04:08:57;10.00;99.90
63260;DHT22;49390;51.380;0.098;2022-12-29T04:11:26;10.00;99.90
63260;DHT22;49390;51.380;0.098;2022-12-29T04:14:00;10.00;99.90
63260;DHT22;49390;51.380;0.098;2022-12-29T04:16:30;10.00;99.90
63260;DHT22;49390;51.380;0.098;2022-12-29T04:18:58;10.10;99.90
63260;DHT22;49390;51.380;0.098;2022-12-29T04:21:27;10.10;99.90
63260;DHT22;49390;51.380;0.098;2022-12-29T04:23:56;10.00;99.90
63260;DHT22;49390;51.380;0.098;2022-12-29T04:26:25;10.00;99.90
63260;DHT22;49390;51.380;0.098;2022-12-29T04:28:59;10.00;99.90
63260;DHT22;49390;51.380;0.098;2022-12-29T04:31:48;10.00;99.90
63260;DHT22;49390;51.380;0.098;2022-12-29T04:34:17;9.90;99.90
63260;DHT22;49390;51.380;0.098;2022-12-29T04:36:47;9.90;99.90
63260;DHT22;49390;51.380;0.098;2022-12-29T04:39:15;9.80;99.90
63260;DHT22;49390;51.380;0.098;2022-12-29T04:41:44;9.70;99.90
63260;DHT22;49390;51.380;0.098;2022-12-29T04:44:17;9.70;99.90
63260;DHT22;49390;51.380;0.098;2022-12-29T04:47:03;9.70;99.90
63260;DHT22;49390;51.380;0.098;2022-12-29T04:49:50;9.70;99.90
63260;DHT22;49390;51.380;0.098;2022-12-29T04:52:34;9.70;99.90
63260;DHT22;49390;51.380;0.098;2022-12-29T04:55:04;9.60;99.90
63260;DHT22;49390;51.380;0.098;2022-12-29T04:57:32;9.70;99.90
63260;DHT22;49390;51.380;0.098;2022-12-29T05:00:01;9.70;99.90
63260;DHT22;49390;51.380;0.098;2022-12-29T05:02:30;9.70;99.90
63260;DHT22;49390;51.380;0.098;2022-12-29T05:05:01;9.70;99.90
63260;DHT22;49390;51.380;0.098;2022-12-29T05:07:30;9.70;99.90
63260;DHT22;49390;51.380;0.098;2022-12-29T05:09:59;9.70;99.90
63260;DHT22;49390;51.380;0.098;2022-12-29T05:12:35;9.70;99.90
63260;DHT22;49390;51.380;0.098;2022-12-29T05:15:05;9.70;99.90
63260;DHT22;49390;51.380;0.098;2022-12-29T05:17:34;9.70;99.90
63260;DHT22;49390;51.380;0.098;2022-12-29T05:20:04;9.70;99.90
63260;DHT22;49390;51.380;0.098;2022-12-29T05:22:34;9.70;99.90
63260;DHT22;49390;51.380;0.098;2022-12-29T05:25:02;9.70;99.90
63260;DHT22;49390;51.380;0.098;2022-12-29T05:27:33;9.70;99.90
63260;DHT22;49390;51.380;0.098;2022-12-29T05:30:18;9.60;99.90
63260;DHT22;49390;51.380;0.098;2022-12-29T05:32:48;9.60;99.90
63260;DHT22;49390;51.380;0.098;2022-12-29T05:35:18;9.60;99.90
63260;DHT22;49390;51.380;0.098;2022-12-29T05:37:46;9.60;99.90
63260;DHT22;49390;51.380;0.098;2022-12-29T05:40:14;9.60;99.90
63260;DHT22;49390;51.380;0.098;2022-12-29T05:42:44;9.50;99.90
63260;DHT22;49390;51.380;0.098;2022-12-29T05:45:30;9.50;99.90
63260;DHT22;49390;51.380;0.098;2022-12-29T05:48:26;9.60;99.90
63260;DHT22;49390;51.380;0.098;2022-12-29T05:51:22;9.50;99.90
63260;DHT22;49390;51.380;0.098;2022-12-29T05:53:53;9.50;99.90
63260;DHT22;49390;51.380;0.098;2022-12-29T05:56:22;9.60;99.90
63260;DHT22;49390;51.380;0.098;2022-12-29T05:58:56;9.60;99.90
63260;DHT22;49390;51.380;0.098;2022-12-29T06:01:24;9.60;99.90
63260;DHT22;49390;51.380;0.098;2022-12-29T06:03:54;9.70;99.90
63260;DHT22;49390;51.380;0.098;2022-12-29T06:06:22;9.70;99.90
63260;DHT22;49390;51.380;0.098;2022-12-29T06:08:51;9.70;99.90
63260;DHT22;49390;51.380;0.098;2022-12-29T06:11:19;9.70;99.90
63260;DHT22;49390;51.380;0.098;2022-12-29T06:13:53;9.70;99.90
63260;DHT22;49390;51.380;0.098;2022-12-29T06:16:21;9.70;99.90
63260;DHT22;49390;51.380;0.098;2022-12-29T06:18:53;9.70;99.90
63260;DHT22;49390;51.380;0.098;2022-12-29T06:21:22;9.70;99.90
63260;DHT22;49390;51.380;0.098;2022-12-29T06:23:51;9.60;99.90
63260;DHT22;49390;51.380;0.098;2022-12-29T06:26:20;9.70;99.90
63260;DHT22;49390;51.380;0.098;2022-12-29T06:28:49;9.60;99.90
63260;DHT22;49390;51.380;0.098;2022-12-29T06:31:19;9.60;99.90
63260;DHT22;49390;51.380;0.098;2022-12-29T06:33:48;9.50;99.90
63260;DHT22;49390;51.380;0.098;2022-12-29T06:36:20;9.50;99.90
63260;DHT22;49390;51.380;0.098;2022-12-29T06:38:48;9.50;99.90
63260;DHT22;49390;51.380;0.098;2022-12-29T06:41:20;9.40;99.90
63260;DHT22;49390;51.380;0.098;2022-12-29T06:44:21;9.40;99.90
63260;DHT22;49390;51.380;0.098;2022-12-29T06:46:51;9.40;99.90
63260;DHT22;49390;51.380;0.098;2022-12-29T06:49:19;9.40;99.90
63260;DHT22;49390;51.380;0.098;2022-12-29T06:51:48;9.30;99.90
63260;DHT22;49390;51.380;0.098;2022-12-29T06:54:16;9.30;99.90
63260;DHT22;49390;51.380;0.098;2022-12-29T06:56:44;9.30;99.90
63260;DHT22;49390;51.380;0.098;2022-12-29T06:59:12;9.20;99.90
63260;DHT22;49390;51.380;0.098;2022-12-29T07:01:41;9.20;99.90
63260;DHT22;49390;51.380;0.098;2022-12-29T07:04:09;9.20;99.90
63260;DHT22;49390;51.380;0.098;2022-12-29T07:06:37;9.10;99.90
63260;DHT22;49390;51.380;0.098;2022-12-29T07:09:07;9.10;99.90
63260;DHT22;49390;51.380;0.098;2022-12-29T07:11:35;9.10;99.90
63260;DHT22;49390;51.380;0.098;2022-12-29T07:14:03;9.10;99.90
63260;DHT22;49390;51.380;0.098;2022-12-29T07:16:31;9.00;99.90
63260;DHT22;49390;51.380;0.098;2022-12-29T07:19:01;9.00;99.90
63260;DHT22;49390;51.380;0.098;2022-12-29T07:21:29;9.00;99.90
63260;DHT22;49390;51.380;0.098;2022-12-29T07:23:57;8.90;99.90
63260;DHT22;49390;51.380;0.098;2022-12-29T07:26:27;8.90;99.90
63260;DHT22;49390;51.380;0.098;2022-12-29T07:29:03;8.90;99.90
63260;DHT22;49390;51.380;0.098;2022-12-29T07:31:32;8.90;99.90
63260;DHT22;49390;51.380;0.098;2022-12-29T07:34:01;8.90;99.90
63260;DHT22;49390;51.380;0.098;2022-12-29T07:36:29;8.80;99.90
63260;DHT22;49390;51.380;0.098;2022-12-29T07:39:02;8.80;99.90
63260;DHT22;49390;51.380;0.098;2022-12-29T07:41:30;8.80;99.90
63260;DHT22;49390;51.380;0.098;2022-12-29T07:44:02;8.70;99.90
63260;DHT22;49390;51.380;0.098;2022-12-29T07:46:35;8.80;99.90
63260;DHT22;49390;51.380;0.098;2022-12-29T07:49:23;8.80;99.90
63260;DHT22;49390;51.380;0.098;2022-12-29T07:51:51;8.70;99.90
63260;DHT22;49390;51.380;0.098;2022-12-29T07:54:19;8.70;99.90
63260;DHT22;49390;51.380;0.098;2022-12-29T07:56:48;8.70;99.90
63260;DHT22;49390;51.380;0.098;2022-12-29T07:59:16;8.70;99.90
63260;DHT22;49390;51.380;0.098;2022-12-29T08:01:44;8.70;99.90
63260;DHT22;49390;51.380;0.098;2022-12-29T08:04:12;8.70;99.90
63260;DHT22;49390;51.380;0.098;2022-12-29T08:06:40;8.70;99.90
63260;DHT22;49390;51.380;0.098;2022-12-29T08:09:08;8.70;99.90
63260;DHT22;49390;51.380;0.098;2022-12-29T08:11:46;8.70;99.90
63260;DHT22;49390;51.380;0.098;2022-12-29T08:14:15;8.70;99.90
63260;DHT22;49390;51.380;0.098;2022-12-29T08:16:43;8.70;99.90
63260;DHT22;49390;51.380;0.098;2022-12-29T08:19:12;8.60;99.90
63260;DHT22;49390;51.380;0.098;2022-12-29T08:21:40;8.60;99.90
63260;DHT22;49390;51.380;0.098;2022-12-29T08:24:09;8.60;99.90
63260;DHT22;49390;51.380;0.098;2022-12-29T08:26:37;8.60;99.90
63260;DHT22;49390;51.380;0.098;2022-12-29T08:29:05;8.60;99.90
63260;DHT22;49390;51.380;0.098;2022-12-29T08:31:33;8.60;99.90
63260;DHT22;49390;51.380;0.098;2022-12-29T08:34:01;8.60;99.90
63260;DHT22;49390;51.380;0.098;2022-12-29T08:36:31;8.60;99.90
63260;DHT22;49390;51.380;0.098;2022-12-29T08:38:59;8.60;99.90
63260;DHT22;49390;51.380;0.098;2022-12-29T08:41:28;8.60;99.90
63260;DHT22;49390;51.380;0.098;2022-12-29T08:43:57;8.60;99.90
63260;DHT22;49390;51.380;0.098;2022-12-29T08:46:25;8.60;99.90
63260;DHT22;49390;51.380;0.098;2022-12-29T08:48:54;8.60;99.90
63260;DHT22;49390;51.380;0.098;2022-12-29T08:51:23;8.60;99.90
63260;DHT22;49390;51.380;0.098;2022-12-29T08:53:52;8.60;99.90
63260;DHT22;49390;51.380;0.098;2022-12-29T08:56:23;8.60;99.90
63260;DHT22;49390;51.380;0.098;2022-12-29T08:58:55;8.60;99.90
63260;DHT22;49390;51.380;0.098;2022-12-29T09:01:26;8.60;99.90
63260;DHT22;49390;51.380;0.098;2022-12-29T09:03:56;8.70;99.90
63260;DHT22;49390;51.380;0.098;2022-12-29T09:06:45;8.70;99.90
63260;DHT22;49390;51.380;0.098;2022-12-29T09:09:13;8.80;99.90
63260;DHT22;49390;51.380;0.098;2022-12-29T09:11:42;8.80;99.90
63260;DHT22;49390;51.380;0.098;2022-12-29T09:14:13;8.90;99.90
63260;DHT22;49390;51.380;0.098;2022-12-29T09:16:44;9.00;99.90
63260;DHT22;49390;51.380;0.098;2022-12-29T09:19:31;9.00;99.90
63260;DHT22;49390;51.380;0.098;2022-12-29T09:21:59;9.00;99.90
63260;DHT22;49390;51.380;0.098;2022-12-29T09:24:27;9.00;99.90
63260;DHT22;49390;51.380;0.098;2022-12-29T09:26:56;9.00;99.90
63260;DHT22;49390;51.380;0.098;2022-12-29T09:29:24;9.00;99.90
63260;DHT22;49390;51.380;0.098;2022-12-29T09:31:55;9.00;99.90
63260;DHT22;49390;51.380;0.098;2022-12-29T09:34:25;9.00;99.90
63260;DHT22;49390;51.380;0.098;2022-12-29T09:36:53;9.00;99.90
63260;DHT22;49390;51.380;0.098;2022-12-29T09:39:22;9.00;99.90
63260;DHT22;49390;51.380;0.098;2022-12-29T09:42:07;9.00;99.90
63260;DHT22;49390;51.380;0.098;2022-12-29T09:47:25;9.00;99.90
63260;DHT22;49390;51.380;0.098;2022-12-29T09:50:05;9.00;99.90
63260;DHT22;49390;51.380;0.098;2022-12-29T09:52:40;9.10;99.90
63260;DHT22;49390;51.380;0.098;2022-12-29T09:55:18;9.10;99.90
63260;DHT22;49390;51.380;0.098;2022-12-29T09:57:59;9.20;99.90
63260;DHT22;49390;51.380;0.098;2022-12-29T10:00:37;9.20;99.90
63260;DHT22;49390;51.380;0.098;2022-12-29T10:03:17;9.30;99.90
63260;DHT22;49390;51.380;0.098;2022-12-29T10:06:04;9.30;99.90
63260;DHT22;49390;51.380;0.098;2022-12-29T10:17:50;9.50;99.90
63260;DHT22;49390;51.380;0.098;2022-12-29T10:23:33;9.70;99.90
63260;DHT22;49390;51.380;0.098;2022-12-29T10:26:04;9.70;99.90
63260;DHT22;49390;51.380;0.098;2022-12-29T10:28:52;9.70;99.90
63260;DHT22;49390;51.380;0.098;2022-12-29T10:31:24;9.70;99.90
63260;DHT22;49390;51.380;0.098;2022-12-29T10:33:59;9.70;99.90
63260;DHT22;49390;51.380;0.098;2022-12-29T10:36:41;9.70;99.90
63260;DHT22;49390;51.380;0.098;2022-12-29T10:44:41;9.60;99.90
63260;DHT22;49390;51.380;0.098;2022-12-29T10:47:15;9.60;99.90
63260;DHT22;49390;51.380;0.098;2022-12-29T10:49:46;9.60;99.90
63260;DHT22;49390;51.380;0.098;2022-12-29T10:52:17;9.60;99.90
63260;DHT22;49390;51.380;0.098;2022-12-29T10:55:03;9.60;99.90
63260;DHT22;49390;51.380;0.098;2022-12-29T10:57:41;9.60;99.90
63260;DHT22;49390;51.380;0.098;2022-12-29T11:00:20;9.60;99.90
63260;DHT22;49390;51.380;0.098;2022-12-29T11:03:24;9.60;99.90
63260;DHT22;49390;51.380;0.098;2022-12-29T11:06:04;9.60;99.90
63260;DHT22;49390;51.380;0.098;2022-12-29T11:09:01;9.60;99.90
63260;DHT22;49390;51.380;0.098;2022-12-29T11:11:35;9.60;99.90
63260;DHT22;49390;51.380;0.098;2022-12-29T11:14:17;9.60;99.90
63260;DHT22;49390;51.380;0.098;2022-12-29T11:17:00;9.60;99.90
63260;DHT22;49390;51.380;0.098;2022-12-29T11:19:30;9.60;99.90
63260;DHT22;49390;51.380;0.098;2022-12-29T11:22:27;9.60;99.90
63260;DHT22;49390;51.380;0.098;2022-12-29T11:25:09;9.60;99.90
63260;DHT22;49390;51.380;0.098;2022-12-29T11:27:38;9.60;99.90
63260;DHT22;49390;51.380;0.098;2022-12-29T11:30:26;9.60;99.90
63260;DHT22;49390;51.380;0.098;2022-12-29T11:32:55;9.70;99.90
63260;DHT22;49390;51.380;0.098;2022-12-29T11:35:36;9.70;99.90
63260;DHT22;49390;51.380;0.098;2022-12-29T11:38:20;9.70;99.90
63260;DHT22;49390;51.380;0.098;2022-12-29T11:40:48;9.70;99.90
63260;DHT22;49390;51.380;0.098;2022-12-29T11:43:32;9.70;99.90
63260;DHT22;49390;51.380;0.098;2022-12-29T11:46:01;9.80;99.90
63260;DHT22;49390;51.380;0.098;2022-12-29T11:48:39;9.80;99.90
63260;DHT22;49390;51.380;0.098;2022-12-29T11:51:08;9.70;99.90
63260;DHT22;49390;51.380;0.098;2022-12-29T11:53:42;9.70;99.90
63260;DHT22;49390;51.380;0.098;2022-12-29T11:56:16;9.80;99.90
63260;DHT22;49390;51.380;0.098;2022-12-29T11:58:46;9.80;99.90
63260;DHT22;49390;51.380;0.098;2022-12-29T12:01:31;9.90;99.90
63260;DHT22;49390;51.380;0.098;2022-12-29T12:04:30;9.90;99.90
63260;DHT22;49390;51.380;0.098;2022-12-29T12:07:18;9.90;99.90
63260;DHT22;49390;51.380;0.098;2022-12-29T12:09:54;9.90;99.90
63260;DHT22;49390;51.380;0.098;2022-12-29T12:15:47;9.90;99.90
63260;DHT22;49390;51.380;0.098;2022-12-29T12:18:47;9.90;99.90
63260;DHT22;49390;51.380;0.098;2022-12-29T12:27:22;9.80;99.90
63260;DHT22;49390;51.380;0.098;2022-12-29T12:30:18;9.70;99.90
63260;DHT22;49390;51.380;0.098;2022-12-29T12:33:05;9.70;99.90
63260;DHT22;49390;51.380;0.098;2022-12-29T12:46:49;9.80;99.90
63260;DHT22;49390;51.380;0.098;2022-12-29T12:50:00;9.80;99.90
63260;DHT22;49390;51.380;0.098;2022-12-29T12:58:44;9.90;99.90
63260;DHT22;49390;51.380;0.098;2022-12-29T13:07:36;10.10;99.90
63260;DHT22;49390;51.380;0.098;2022-12-29T13:10:05;10.10;99.90
63260;DHT22;49390;51.380;0.098;2022-12-29T13:18:24;10.20;99.90
63260;DHT22;49390;51.380;0.098;2022-12-29T13:23:38;10.30;99.90
63260;DHT22;49390;51.380;0.098;2022-12-29T13:26:34;10.30;99.90
63260;DHT22;49390;51.380;0.098;2022-12-29T13:29:13;10.40;99.90
63260;DHT22;49390;51.380;0.098;2022-12-29T13:31:45;10.40;99.90
63260;DHT22;49390;51.380;0.098;2022-12-29T13:36:53;10.30;99.90
63260;DHT22;49390;51.380;0.098;2022-12-29T13:39:30;10.30;99.90
63260;DHT22;49390;51.380;0.098;2022-12-29T13:42:02;10.30;99.90
63260;DHT22;49390;51.380;0.098;2022-12-29T13:44:34;10.30;99.90
63260;DHT22;49390;51.380;0.098;2022-12-29T13:49:48;10.50;99.90
63260;DHT22;49390;51.380;0.098;2022-12-29T13:52:30;10.50;99.90
63260;DHT22;49390;51.380;0.098;2022-12-29T13:57:55;10.60;99.30
63260;DHT22;49390;51.380;0.098;2022-12-29T14:00:29;10.60;98.50
63260;DHT22;49390;51.380;0.098;2022-12-29T14:03:24;10.50;96.70
63260;DHT22;49390;51.380;0.098;2022-12-29T14:08:45;10.30;97.40
63260;DHT22;49390;51.380;0.098;2022-12-29T14:11:16;10.20;96.40
63260;DHT22;49390;51.380;0.098;2022-12-29T14:13:47;10.10;96.50
63260;DHT22;49390;51.380;0.098;2022-12-29T14:18:54;10.00;97.00
63260;DHT22;49390;51.380;0.098;2022-12-29T14:21:26;10.00;97.50
63260;DHT22;49390;51.380;0.098;2022-12-29T14:24:27;10.00;98.00
63260;DHT22;49390;51.380;0.098;2022-12-29T14:26:56;10.00;97.60
63260;DHT22;49390;51.380;0.098;2022-12-29T14:31:53;10.00;96.20
63260;DHT22;49390;51.380;0.098;2022-12-29T14:39:39;9.80;94.50
63260;DHT22;49390;51.380;0.098;2022-12-29T14:45:06;9.70;95.30
63260;DHT22;49390;51.380;0.098;2022-12-29T14:47:41;9.70;96.00
63260;DHT22;49390;51.380;0.098;2022-12-29T14:50:23;9.70;96.80
63260;DHT22;49390;51.380;0.098;2022-12-29T14:53:00;9.70;97.40
63260;DHT22;49390;51.380;0.098;2022-12-29T14:58:30;9.60;97.20
63260;DHT22;49390;51.380;0.098;2022-12-29T15:01:00;9.60;97.30
63260;DHT22;49390;51.380;0.098;2022-12-29T15:03:43;9.50;97.40
63260;DHT22;49390;51.380;0.098;2022-12-29T15:06:16;9.50;97.40
63260;DHT22;49390;51.380;0.098;2022-12-29T15:09:03;9.50;97.70
63260;DHT22;49390;51.380;0.098;2022-12-29T15:11:45;9.50;97.80
63260;DHT22;49390;51.380;0.098;2022-12-29T15:16:56;9.40;98.10
63260;DHT22;49390;51.380;0.098;2022-12-29T15:19:28;9.40;97.80
63260;DHT22;49390;51.380;0.098;2022-12-29T15:22:00;9.40;97.40
63260;DHT22;49390;51.380;0.098;2022-12-29T15:24:29;9.40;96.40
63260;DHT22;49390;51.380;0.098;2022-12-29T15:27:03;9.30;96.50
63260;DHT22;49390;51.380;0.098;2022-12-29T15:29:42;9.30;96.70
63260;DHT22;49390;51.380;0.098;2022-12-29T15:32:24;9.30;96.20
63260;DHT22;49390;51.380;0.098;2022-12-29T15:34:56;9.20;96.40
63260;DHT22;49390;51.380;0.098;2022-12-29T15:37:26;9.20;96.10
63260;DHT22;49390;51.380;0.098;2022-12-29T15:39:55;9.20;96.20
63260;DHT22;49390;51.380;0.098;2022-12-29T15:45:14;9.10;96.60
63260;DHT22;49390;51.380;0.098;2022-12-29T15:47:44;9.10;96.40
63260;DHT22;49390;51.380;0.098;2022-12-29T15:50:31;9.10;96.50
63260;DHT22;49390;51.380;0.098;2022-12-29T15:53:02;9.00;96.20
63260;DHT22;49390;51.380;0.098;2022-12-29T15:55:36;9.00;96.40
63260;DHT22;49390;51.380;0.098;2022-12-29T15:58:17;9.00;96.20
63260;DHT22;49390;51.380;0.098;2022-12-29T16:00:55;9.00;96.40
63260;DHT22;49390;51.380;0.098;2022-12-29T16:03:26;9.00;96.60
63260;DHT22;49390;51.380;0.098;2022-12-29T16:06:07;8.90;96.70
63260;DHT22;49390;51.380;0.098;2022-12-29T16:08:38;8.90;96.80
63260;DHT22;49390;51.380;0.098;2022-12-29T16:11:22;8.90;96.90
63260;DHT22;49390;51.380;0.098;2022-12-29T16:13:52;8.90;96.80
63260;DHT22;49390;51.380;0.098;2022-12-29T16:16:30;8.90;97.10
63260;DHT22;49390;51.380;0.098;2022-12-29T16:19:19;8.80;97.30
63260;DHT22;49390;51.380;0.098;2022-12-29T16:21:49;8.80;97.50
63260;DHT22;49390;51.380;0.098;2022-12-29T16:24:21;8.80;97.40
63260;DHT22;49390;51.380;0.098;2022-12-29T16:27:19;8.80;97.40
63260;DHT22;49390;51.380;0.098;2022-12-29T16:29:53;8.70;97.80
63260;DHT22;49390;51.380;0.098;2022-12-29T16:32:29;8.60;98.30
63260;DHT22;49390;51.380;0.098;2022-12-29T16:37:47;8.60;98.90
63260;DHT22;49390;51.380;0.098;2022-12-29T16:42:49;8.50;99.80
63260;DHT22;49390;51.380;0.098;2022-12-29T16:50:36;8.60;99.90
63260;DHT22;49390;51.380;0.098;2022-12-29T16:53:15;8.60;99.90
63260;DHT22;49390;51.380;0.098;2022-12-29T16:55:47;8.60;99.90
63260;DHT22;49390;51.380;0.098;2022-12-29T16:58:20;8.60;99.90
63260;DHT22;49390;51.380;0.098;2022-12-29T17:00:53;8.50;99.90
63260;DHT22;49390;51.380;0.098;2022-12-29T17:03:33;8.50;99.90
63260;DHT22;49390;51.380;0.098;2022-12-29T17:06:02;8.40;99.90
63260;DHT22;49390;51.380;0.098;2022-12-29T17:08:40;8.50;99.90
63260;DHT22;49390;51.380;0.098;2022-12-29T17:14:04;8.40;99.90
63260;DHT22;49390;51.380;0.098;2022-12-29T17:16:33;8.40;99.90
63260;DHT22;49390;51.380;0.098;2022-12-29T17:19:02;8.30;99.90
63260;DHT22;49390;51.380;0.098;2022-12-29T17:21:30;8.30;99.90
63260;DHT22;49390;51.380;0.098;2022-12-29T17:23:58;8.30;99.90
63260;DHT22;49390;51.380;0.098;2022-12-29T17:26:28;8.20;99.90
63260;DHT22;49390;51.380;0.098;2022-12-29T17:28:57;8.20;99.90
63260;DHT22;49390;51.380;0.098;2022-12-29T17:31:26;8.20;99.90
63260;DHT22;49390;51.380;0.098;2022-12-29T17:33:54;8.20;99.90
63260;DHT22;49390;51.380;0.098;2022-12-29T17:36:23;8.20;99.90
63260;DHT22;49390;51.380;0.098;2022-12-29T17:38:53;8.10;99.90
63260;DHT22;49390;51.380;0.098;2022-12-29T17:41:20;8.10;99.90
63260;DHT22;49390;51.380;0.098;2022-12-29T17:43:48;8.10;99.90
63260;DHT22;49390;51.380;0.098;2022-12-29T17:46:17;8.00;99.90
63260;DHT22;49390;51.380;0.098;2022-12-29T17:48:45;8.10;99.90
63260;DHT22;49390;51.380;0.098;2022-12-29T17:51:21;8.00;99.90
63260;DHT22;49390;51.380;0.098;2022-12-29T17:53:52;8.00;99.90
63260;DHT22;49390;51.380;0.098;2022-12-29T17:56:20;8.00;99.90
63260;DHT22;49390;51.380;0.098;2022-12-29T17:58:49;8.00;99.90
63260;DHT22;49390;51.380;0.098;2022-12-29T18:01:17;8.00;99.90
63260;DHT22;49390;51.380;0.098;2022-12-29T18:03:49;8.00;99.90
63260;DHT22;49390;51.380;0.098;2022-12-29T18:06:18;8.00;99.90
63260;DHT22;49390;51.380;0.098;2022-12-29T18:08:47;7.90;99.90
63260;DHT22;49390;51.380;0.098;2022-12-29T18:11:23;7.90;99.90
63260;DHT22;49390;51.380;0.098;2022-12-29T18:16:16;7.90;99.90
63260;DHT22;49390;51.380;0.098;2022-12-29T18:18:44;7.90;99.90
63260;DHT22;49390;51.380;0.098;2022-12-29T18:21:15;7.90;99.90
63260;DHT22;49390;51.380;0.098;2022-12-29T18:23:45;7.90;99.90
63260;DHT22;49390;51.380;0.098;2022-12-29T18:26:17;7.80;99.90
63260;DHT22;49390;51.380;0.098;2022-12-29T18:28:55;7.80;99.90
63260;DHT22;49390;51.380;0.098;2022-12-29T18:31:32;7.80;99.90
63260;DHT22;49390;51.380;0.098;2022-12-29T18:34:05;7.80;99.90
63260;DHT22;49390;51.380;0.098;2022-12-29T18:36:34;7.80;99.90
63260;DHT22;49390;51.380;0.098;2022-12-29T18:39:02;7.80;99.90
63260;DHT22;49390;51.380;0.098;2022-12-29T18:41:31;7.70;99.90
